sensor_id;sensor_type;location;lat;lon;timestamp;P1;durP1;ratioP1;P2;durP2;ratioP2
3443;SDS011;1736;52.068;6.968;2023-02-27T00:02:11;4.10;;;3.10;;
3443;SDS011;1736;52.068;6.968;2023-02-27T00:04:37;7.13;;;3.80;;
3443;SDS011;1736;52.068;6.968;2023-02-27T00:07:04;4.63;;;3.20;;
3443;SDS011;1736;52.068;6.968;2023-02-27T00:09:31;7.87;;;3.40;;
3443;SDS011;1736;52.068;6.968;2023-02-27T00:11:57;9.40;;;3.50;;
3443;SDS011;1736;52.068;6.968;2023-02-27T00:14:24;5.60;;;3.37;;
3443;SDS011;1736;52.068;6.968;2023-02-27T00:16:52;3.97;;;3.40;;
3443;SDS011;1736;52.068;6.968;2023-02-27T00:19:19;6.30;;;3.27;;
3443;SDS011;1736;52.068;6.968;2023-02-27T00:21:46;5.30;;;3.57;;
3443;SDS011;1736;52.068;6.968;2023-02-27T00:24:13;3.83;;;3.43;;
3443;SDS011;1736;52.068;6.968;2023-02-27T00:26:39;8.10;;;3.63;;
3443;SDS011;1736;52.068;6.968;2023-02-27T00:29:06;5.80;;;3.10;;
3443;SDS011;1736;52.068;6.968;2023-02-27T00:31:33;3.57;;;3.23;;
3443;SDS011;1736;52.068;6.968;2023-02-27T00:34:01;4.43;;;3.47;;
3443;SDS011;1736;52.068;6.968;2023-02-27T00:36:28;4.17;;;3.03;;
3443;SDS011;1736;52.068;6.968;2023-02-27T00:38:54;6.33;;;3.43;;
3443;SDS011;1736;52.068;6.968;2023-02-27T00:41:21;4.27;;;3.07;;
3443;SDS011;1736;52.068;6.968;2023-02-27T00:43:48;4.73;;;2.80;;
3443;SDS011;1736;52.068;6.968;2023-02-27T00:46:14;3.73;;;2.83;;
3443;SDS011;1736;52.068;6.968;2023-02-27T00:48:41;10.17;;;3.20;;
3443;SDS011;1736;52.068;6.968;2023-02-27T00:51:08;17.10;;;3.30;;
3443;SDS011;1736;52.068;6.968;2023-02-27T00:53:35;7.87;;;3.20;;
3443;SDS011;1736;52.068;6.968;2023-02-27T00:56:02;7.73;;;3.50;;
3443;SDS011;1736;52.068;6.968;2023-02-27T00:58:29;3.53;;;2.80;;
3443;SDS011;1736;52.068;6.968;2023-02-27T01:00:57;4.97;;;3.37;;
3443;SDS011;1736;52.068;6.968;2023-02-27T01:03:24;5.87;;;3.13;;
3443;SDS011;1736;52.068;6.968;2023-02-27T01:05:51;5.43;;;3.50;;
3443;SDS011;1736;52.068;6.968;2023-02-27T01:08:19;4.77;;;3.27;;
3443;SDS011;1736;52.068;6.968;2023-02-27T01:10:45;3.10;;;2.80;;
3443;SDS011;1736;52.068;6.968;2023-02-27T01:13:12;3.30;;;3.00;;
3443;SDS011;1736;52.068;6.968;2023-02-27T01:15:38;2.97;;;2.67;;
3443;SDS011;1736;52.068;6.968;2023-02-27T01:18:05;4.60;;;3.10;;
3443;SDS011;1736;52.068;6.968;2023-02-27T01:20:31;6.37;;;3.37;;
3443;SDS011;1736;52.068;6.968;2023-02-27T01:22:58;4.70;;;3.33;;
3443;SDS011;1736;52.068;6.968;2023-02-27T01:25:26;3.67;;;2.90;;
3443;SDS011;1736;52.068;6.968;2023-02-27T01:27:52;4.50;;;3.20;;
3443;SDS011;1736;52.068;6.968;2023-02-27T01:30:19;4.20;;;3.20;;
3443;SDS011;1736;52.068;6.968;2023-02-27T01:32:46;3.80;;;3.20;;
3443;SDS011;1736;52.068;6.968;2023-02-27T01:35:12;5.53;;;3.13;;
3443;SDS011;1736;52.068;6.968;2023-02-27T01:37:39;5.53;;;3.23;;
3443;SDS011;1736;52.068;6.968;2023-02-27T01:40:06;4.40;;;3.10;;
3443;SDS011;1736;52.068;6.968;2023-02-27T01:42:35;4.83;;;3.27;;
3443;SDS011;1736;52.068;6.968;2023-02-27T01:47:59;7.20;;;3.70;;
3443;SDS011;1736;52.068;6.968;2023-02-27T01:50:29;3.40;;;2.93;;
3443;SDS011;1736;52.068;6.968;2023-02-27T01:52:57;5.50;;;3.63;;
3443;SDS011;1736;52.068;6.968;2023-02-27T01:55:27;5.33;;;4.10;;
3443;SDS011;1736;52.068;6.968;2023-02-27T01:57:58;5.63;;;3.67;;
3443;SDS011;1736;52.068;6.968;2023-02-27T02:00:25;7.10;;;4.00;;
3443;SDS011;1736;52.068;6.968;2023-02-27T02:02:54;7.13;;;3.20;;
3443;SDS011;1736;52.068;6.968;2023-02-27T02:05:25;4.13;;;3.10;;
3443;SDS011;1736;52.068;6.968;2023-02-27T02:07:54;5.03;;;3.27;;
3443;SDS011;1736;52.068;6.968;2023-02-27T02:10:22;3.33;;;3.03;;
3443;SDS011;1736;52.068;6.968;2023-02-27T02:12:49;6.57;;;3.53;;
3443;SDS011;1736;52.068;6.968;2023-02-27T02:15:17;6.50;;;3.50;;
3443;SDS011;1736;52.068;6.968;2023-02-27T02:17:50;4.70;;;3.37;;
3443;SDS011;1736;52.068;6.968;2023-02-27T02:20:55;4.73;;;3.13;;
3443;SDS011;1736;52.068;6.968;2023-02-27T02:23:47;3.43;;;3.13;;
3443;SDS011;1736;52.068;6.968;2023-02-27T02:26:39;5.77;;;3.20;;
3443;SDS011;1736;52.068;6.968;2023-02-27T02:32:32;5.03;;;2.90;;
3443;SDS011;1736;52.068;6.968;2023-02-27T02:38:48;8.33;;;3.63;;
3443;SDS011;1736;52.068;6.968;2023-02-27T02:41:25;3.87;;;3.30;;
3443;SDS011;1736;52.068;6.968;2023-02-27T02:44:02;3.13;;;2.83;;
3443;SDS011;1736;52.068;6.968;2023-02-27T02:46:34;4.30;;;3.33;;
3443;SDS011;1736;52.068;6.968;2023-02-27T02:49:09;4.73;;;3.20;;
3443;SDS011;1736;52.068;6.968;2023-02-27T02:51:46;3.20;;;2.90;;
3443;SDS011;1736;52.068;6.968;2023-02-27T02:54:19;3.73;;;2.67;;
3443;SDS011;1736;52.068;6.968;2023-02-27T02:56:53;3.23;;;2.60;;
3443;SDS011;1736;52.068;6.968;2023-02-27T02:59:26;5.53;;;3.37;;
3443;SDS011;1736;52.068;6.968;2023-02-27T03:01:58;5.97;;;4.40;;
3443;SDS011;1736;52.068;6.968;2023-02-27T03:04:30;6.27;;;5.00;;
3443;SDS011;1736;52.068;6.968;2023-02-27T03:07:03;10.10;;;5.80;;
3443;SDS011;1736;52.068;6.968;2023-02-27T03:09:36;7.53;;;4.80;;
3443;SDS011;1736;52.068;6.968;2023-02-27T03:12:08;6.13;;;4.90;;
3443;SDS011;1736;52.068;6.968;2023-02-27T03:14:39;6.50;;;4.63;;
3443;SDS011;1736;52.068;6.968;2023-02-27T03:17:13;7.30;;;4.40;;
3443;SDS011;1736;52.068;6.968;2023-02-27T03:19:45;7.63;;;4.13;;
3443;SDS011;1736;52.068;6.968;2023-02-27T03:22:20;7.60;;;4.67;;
3443;SDS011;1736;52.068;6.968;2023-02-27T03:24:52;4.23;;;3.83;;
3443;SDS011;1736;52.068;6.968;2023-02-27T03:27:20;4.30;;;3.70;;
3443;SDS011;1736;52.068;6.968;2023-02-27T03:29:51;4.40;;;3.60;;
3443;SDS011;1736;52.068;6.968;2023-02-27T03:32:23;6.20;;;4.53;;
3443;SDS011;1736;52.068;6.968;2023-02-27T03:34:56;6.20;;;3.63;;
3443;SDS011;1736;52.068;6.968;2023-02-27T03:37:25;4.37;;;3.77;;
3443;SDS011;1736;52.068;6.968;2023-02-27T03:40:03;5.63;;;4.03;;
3443;SDS011;1736;52.068;6.968;2023-02-27T03:42:37;5.90;;;4.30;;
3443;SDS011;1736;52.068;6.968;2023-02-27T03:45:08;5.53;;;4.10;;
3443;SDS011;1736;52.068;6.968;2023-02-27T03:47:43;9.93;;;4.57;;
3443;SDS011;1736;52.068;6.968;2023-02-27T03:50:10;6.23;;;3.93;;
3443;SDS011;1736;52.068;6.968;2023-02-27T03:52:37;7.63;;;4.87;;
3443;SDS011;1736;52.068;6.968;2023-02-27T03:55:08;6.47;;;4.83;;
3443;SDS011;1736;52.068;6.968;2023-02-27T03:57:38;4.77;;;4.10;;
3443;SDS011;1736;52.068;6.968;2023-02-27T04:00:07;5.30;;;3.67;;
3443;SDS011;1736;52.068;6.968;2023-02-27T04:02:36;7.40;;;4.10;;
3443;SDS011;1736;52.068;6.968;2023-02-27T04:05:05;4.73;;;4.30;;
3443;SDS011;1736;52.068;6.968;2023-02-27T04:07:34;15.33;;;5.10;;
3443;SDS011;1736;52.068;6.968;2023-02-27T04:10:15;8.20;;;4.27;;
3443;SDS011;1736;52.068;6.968;2023-02-27T04:13:09;12.27;;;4.40;;
3443;SDS011;1736;52.068;6.968;2023-02-27T04:15:59;5.40;;;4.10;;
3443;SDS011;1736;52.068;6.968;2023-02-27T04:18:43;4.97;;;4.10;;
3443;SDS011;1736;52.068;6.968;2023-02-27T04:21:21;4.60;;;4.03;;
3443;SDS011;1736;52.068;6.968;2023-02-27T04:23:56;4.60;;;4.20;;
3443;SDS011;1736;52.068;6.968;2023-02-27T04:26:32;6.93;;;3.93;;
3443;SDS011;1736;52.068;6.968;2023-02-27T04:29:04;3.83;;;3.43;;
3443;SDS011;1736;52.068;6.968;2023-02-27T04:31:36;6.70;;;5.00;;
3443;SDS011;1736;52.068;6.968;2023-02-27T04:34:13;5.80;;;4.00;;
3443;SDS011;1736;52.068;6.968;2023-02-27T04:36:45;5.70;;;4.30;;
3443;SDS011;1736;52.068;6.968;2023-02-27T04:39:16;5.23;;;4.00;;
3443;SDS011;1736;52.068;6.968;2023-02-27T04:41:50;5.37;;;4.10;;
3443;SDS011;1736;52.068;6.968;2023-02-27T04:44:21;6.60;;;4.70;;
3443;SDS011;1736;52.068;6.968;2023-02-27T04:46:52;6.37;;;4.00;;
3443;SDS011;1736;52.068;6.968;2023-02-27T04:49:21;4.60;;;3.80;;
3443;SDS011;1736;52.068;6.968;2023-02-27T04:51:52;6.33;;;4.63;;
3443;SDS011;1736;52.068;6.968;2023-02-27T04:54:25;4.70;;;3.70;;
3443;SDS011;1736;52.068;6.968;2023-02-27T04:56:58;4.03;;;3.63;;
3443;SDS011;1736;52.068;6.968;2023-02-27T04:59:29;6.93;;;4.03;;
3443;SDS011;1736;52.068;6.968;2023-02-27T05:02:00;7.23;;;5.30;;
3443;SDS011;1736;52.068;6.968;2023-02-27T05:04:31;7.30;;;4.60;;
3443;SDS011;1736;52.068;6.968;2023-02-27T05:07:01;4.23;;;3.83;;
3443;SDS011;1736;52.068;6.968;2023-02-27T05:09:32;3.93;;;3.33;;
3443;SDS011;1736;52.068;6.968;2023-02-27T05:12:10;12.07;;;4.37;;
3443;SDS011;1736;52.068;6.968;2023-02-27T05:14:42;8.40;;;3.80;;
3443;SDS011;1736;52.068;6.968;2023-02-27T05:17:14;4.50;;;4.10;;
3443;SDS011;1736;52.068;6.968;2023-02-27T05:19:46;4.20;;;3.33;;
3443;SDS011;1736;52.068;6.968;2023-02-27T05:22:16;4.97;;;3.60;;
3443;SDS011;1736;52.068;6.968;2023-02-27T05:24:51;4.87;;;4.00;;
3443;SDS011;1736;52.068;6.968;2023-02-27T05:27:32;6.23;;;3.87;;
3443;SDS011;1736;52.068;6.968;2023-02-27T05:30:05;5.17;;;4.67;;
3443;SDS011;1736;52.068;6.968;2023-02-27T05:32:39;3.97;;;3.57;;
3443;SDS011;1736;52.068;6.968;2023-02-27T05:35:12;5.63;;;3.90;;
3443;SDS011;1736;52.068;6.968;2023-02-27T05:37:45;5.13;;;4.03;;
3443;SDS011;1736;52.068;6.968;2023-02-27T05:40:18;5.77;;;3.80;;
3443;SDS011;1736;52.068;6.968;2023-02-27T05:42:51;7.43;;;4.40;;
3443;SDS011;1736;52.068;6.968;2023-02-27T05:45:24;6.40;;;3.93;;
3443;SDS011;1736;52.068;6.968;2023-02-27T05:47:55;6.63;;;4.07;;
3443;SDS011;1736;52.068;6.968;2023-02-27T05:50:28;10.00;;;3.97;;
3443;SDS011;1736;52.068;6.968;2023-02-27T05:52:58;5.87;;;4.67;;
3443;SDS011;1736;52.068;6.968;2023-02-27T05:55:29;4.30;;;3.70;;
3443;SDS011;1736;52.068;6.968;2023-02-27T05:58:00;6.23;;;4.10;;
3443;SDS011;1736;52.068;6.968;2023-02-27T06:00:36;3.93;;;3.60;;
3443;SDS011;1736;52.068;6.968;2023-02-27T06:03:04;6.60;;;3.87;;
3443;SDS011;1736;52.068;6.968;2023-02-27T06:05:31;5.00;;;3.60;;
3443;SDS011;1736;52.068;6.968;2023-02-27T06:07:58;9.00;;;4.20;;
3443;SDS011;1736;52.068;6.968;2023-02-27T06:10:25;5.10;;;3.80;;
3443;SDS011;1736;52.068;6.968;2023-02-27T06:12:51;7.50;;;3.40;;
3443;SDS011;1736;52.068;6.968;2023-02-27T06:15:19;7.83;;;4.00;;
3443;SDS011;1736;52.068;6.968;2023-02-27T06:17:47;5.60;;;4.07;;
3443;SDS011;1736;52.068;6.968;2023-02-27T06:20:13;3.80;;;3.50;;
3443;SDS011;1736;52.068;6.968;2023-02-27T06:22:40;5.67;;;3.90;;
3443;SDS011;1736;52.068;6.968;2023-02-27T06:25:07;8.50;;;4.60;;
3443;SDS011;1736;52.068;6.968;2023-02-27T06:27:34;9.07;;;4.50;;
3443;SDS011;1736;52.068;6.968;2023-02-27T06:30:00;4.90;;;4.30;;
3443;SDS011;1736;52.068;6.968;2023-02-27T06:32:28;5.87;;;4.37;;
3443;SDS011;1736;52.068;6.968;2023-02-27T06:34:55;5.77;;;3.90;;
3443;SDS011;1736;52.068;6.968;2023-02-27T06:37:21;5.57;;;4.30;;
3443;SDS011;1736;52.068;6.968;2023-02-27T06:39:48;7.90;;;4.13;;
3443;SDS011;1736;52.068;6.968;2023-02-27T06:42:15;6.30;;;4.40;;
3443;SDS011;1736;52.068;6.968;2023-02-27T06:44:41;7.00;;;4.50;;
3443;SDS011;1736;52.068;6.968;2023-02-27T06:47:08;7.47;;;4.90;;
3443;SDS011;1736;52.068;6.968;2023-02-27T06:49:36;6.93;;;4.33;;
3443;SDS011;1736;52.068;6.968;2023-02-27T06:52:02;8.50;;;5.17;;
3443;SDS011;1736;52.068;6.968;2023-02-27T06:54:29;5.87;;;4.60;;
3443;SDS011;1736;52.068;6.968;2023-02-27T06:56:56;6.00;;;4.70;;
3443;SDS011;1736;52.068;6.968;2023-02-27T06:59:23;9.57;;;5.30;;
3443;SDS011;1736;52.068;6.968;2023-02-27T07:01:49;6.47;;;4.90;;
3443;SDS011;1736;52.068;6.968;2023-02-27T07:04:16;7.30;;;5.53;;
3443;SDS011;1736;52.068;6.968;2023-02-27T07:06:44;10.03;;;5.03;;
3443;SDS011;1736;52.068;6.968;2023-02-27T07:09:11;10.17;;;5.57;;
3443;SDS011;1736;52.068;6.968;2023-02-27T07:11:38;7.13;;;5.57;;
3443;SDS011;1736;52.068;6.968;2023-02-27T07:14:04;6.60;;;5.30;;
3443;SDS011;1736;52.068;6.968;2023-02-27T07:16:31;8.70;;;5.50;;
3443;SDS011;1736;52.068;6.968;2023-02-27T07:18:57;6.47;;;5.43;;
3443;SDS011;1736;52.068;6.968;2023-02-27T07:21:24;6.53;;;5.13;;
3443;SDS011;1736;52.068;6.968;2023-02-27T07:23:52;8.43;;;5.90;;
3443;SDS011;1736;52.068;6.968;2023-02-27T07:26:18;9.50;;;5.73;;
3443;SDS011;1736;52.068;6.968;2023-02-27T07:28:45;9.70;;;6.60;;
3443;SDS011;1736;52.068;6.968;2023-02-27T07:31:11;17.23;;;5.67;;
3443;SDS011;1736;52.068;6.968;2023-02-27T07:33:38;10.83;;;6.00;;
3443;SDS011;1736;52.068;6.968;2023-02-27T07:36:06;10.10;;;5.80;;
3443;SDS011;1736;52.068;6.968;2023-02-27T07:38:33;16.50;;;5.40;;
3443;SDS011;1736;52.068;6.968;2023-02-27T07:41:00;6.73;;;5.60;;
3443;SDS011;1736;52.068;6.968;2023-02-27T07:43:27;6.50;;;5.40;;
3443;SDS011;1736;52.068;6.968;2023-02-27T07:45:54;7.83;;;5.30;;
3443;SDS011;1736;52.068;6.968;2023-02-27T07:48:20;14.03;;;5.90;;
3443;SDS011;1736;52.068;6.968;2023-02-27T07:50:47;9.23;;;4.70;;
3443;SDS011;1736;52.068;6.968;2023-02-27T07:53:13;9.90;;;5.27;;
3443;SDS011;1736;52.068;6.968;2023-02-27T07:55:40;7.17;;;4.60;;
3443;SDS011;1736;52.068;6.968;2023-02-27T07:58:08;6.40;;;5.00;;
3443;SDS011;1736;52.068;6.968;2023-02-27T08:00:34;5.63;;;4.97;;
3443;SDS011;1736;52.068;6.968;2023-02-27T08:03:02;5.60;;;4.70;;
3443;SDS011;1736;52.068;6.968;2023-02-27T08:05:29;4.77;;;4.27;;
3443;SDS011;1736;52.068;6.968;2023-02-27T08:07:55;5.17;;;4.57;;
3443;SDS011;1736;52.068;6.968;2023-02-27T08:10:22;8.40;;;6.40;;
3443;SDS011;1736;52.068;6.968;2023-02-27T08:12:49;9.13;;;4.90;;
3443;SDS011;1736;52.068;6.968;2023-02-27T08:15:17;6.80;;;4.33;;
3443;SDS011;1736;52.068;6.968;2023-02-27T08:17:44;7.63;;;4.90;;
3443;SDS011;1736;52.068;6.968;2023-02-27T08:20:11;5.60;;;4.80;;
3443;SDS011;1736;52.068;6.968;2023-02-27T08:22:39;5.53;;;4.87;;
3443;SDS011;1736;52.068;6.968;2023-02-27T08:25:06;7.73;;;5.70;;
3443;SDS011;1736;52.068;6.968;2023-02-27T08:27:35;6.83;;;4.40;;
3443;SDS011;1736;52.068;6.968;2023-02-27T08:30:02;8.63;;;4.93;;
3443;SDS011;1736;52.068;6.968;2023-02-27T08:32:32;4.83;;;4.30;;
3443;SDS011;1736;52.068;6.968;2023-02-27T08:34:59;6.20;;;4.60;;
3443;SDS011;1736;52.068;6.968;2023-02-27T08:37:26;3.93;;;3.53;;
3443;SDS011;1736;52.068;6.968;2023-02-27T08:39:53;8.23;;;4.00;;
3443;SDS011;1736;52.068;6.968;2023-02-27T08:42:20;4.87;;;4.00;;
3443;SDS011;1736;52.068;6.968;2023-02-27T08:44:46;5.10;;;3.27;;
3443;SDS011;1736;52.068;6.968;2023-02-27T08:47:15;9.50;;;3.77;;
3443;SDS011;1736;52.068;6.968;2023-02-27T08:49:43;6.63;;;3.63;;
3443;SDS011;1736;52.068;6.968;2023-02-27T08:52:10;3.47;;;2.73;;
3443;SDS011;1736;52.068;6.968;2023-02-27T08:54:36;3.97;;;3.27;;
3443;SDS011;1736;52.068;6.968;2023-02-27T08:57:03;3.43;;;2.97;;
3443;SDS011;1736;52.068;6.968;2023-02-27T08:59:30;3.27;;;2.97;;
3443;SDS011;1736;52.068;6.968;2023-02-27T09:01:57;7.33;;;3.43;;
3443;SDS011;1736;52.068;6.968;2023-02-27T09:04:24;3.17;;;2.83;;
3443;SDS011;1736;52.068;6.968;2023-02-27T09:06:52;5.30;;;3.10;;
3443;SDS011;1736;52.068;6.968;2023-02-27T09:09:19;4.03;;;3.00;;
3443;SDS011;1736;52.068;6.968;2023-02-27T09:11:47;6.73;;;3.13;;
3443;SDS011;1736;52.068;6.968;2023-02-27T09:14:14;4.15;;;2.90;;
3443;SDS011;1736;52.068;6.968;2023-02-27T09:16:41;3.53;;;3.23;;
3443;SDS011;1736;52.068;6.968;2023-02-27T09:19:08;3.83;;;2.67;;
3443;SDS011;1736;52.068;6.968;2023-02-27T09:21:34;20.07;;;3.30;;
3443;SDS011;1736;52.068;6.968;2023-02-27T09:24:03;2.97;;;2.50;;
3443;SDS011;1736;52.068;6.968;2023-02-27T09:26:30;5.70;;;2.83;;
3443;SDS011;1736;52.068;6.968;2023-02-27T09:28:56;2.97;;;2.70;;
3443;SDS011;1736;52.068;6.968;2023-02-27T09:31:23;3.53;;;2.60;;
3443;SDS011;1736;52.068;6.968;2023-02-27T09:33:50;4.80;;;3.13;;
3443;SDS011;1736;52.068;6.968;2023-02-27T09:36:16;4.07;;;2.67;;
3443;SDS011;1736;52.068;6.968;2023-02-27T09:38:43;4.13;;;2.90;;
3443;SDS011;1736;52.068;6.968;2023-02-27T09:41:22;7.93;;;3.10;;
3443;SDS011;1736;52.068;6.968;2023-02-27T09:44:03;3.40;;;2.80;;
3443;SDS011;1736;52.068;6.968;2023-02-27T09:46:32;6.93;;;2.83;;
3443;SDS011;1736;52.068;6.968;2023-02-27T09:48:59;6.10;;;2.80;;
3443;SDS011;1736;52.068;6.968;2023-02-27T09:51:28;3.63;;;2.63;;
3443;SDS011;1736;52.068;6.968;2023-02-27T09:53:55;5.60;;;2.70;;
3443;SDS011;1736;52.068;6.968;2023-02-27T09:56:26;5.20;;;2.70;;
3443;SDS011;1736;52.068;6.968;2023-02-27T09:58:57;5.90;;;2.83;;
3443;SDS011;1736;52.068;6.968;2023-02-27T10:01:29;3.00;;;2.70;;
3443;SDS011;1736;52.068;6.968;2023-02-27T10:06:54;8.17;;;3.93;;
3443;SDS011;1736;52.068;6.968;2023-02-27T10:09:30;7.30;;;3.03;;
3443;SDS011;1736;52.068;6.968;2023-02-27T10:12:13;4.10;;;2.83;;
3443;SDS011;1736;52.068;6.968;2023-02-27T10:14:49;4.57;;;2.57;;
3443;SDS011;1736;52.068;6.968;2023-02-27T10:17:21;4.80;;;2.70;;
3443;SDS011;1736;52.068;6.968;2023-02-27T10:19:51;4.80;;;4.03;;
3443;SDS011;1736;52.068;6.968;2023-02-27T10:22:21;5.87;;;2.60;;
3443;SDS011;1736;52.068;6.968;2023-02-27T10:24:53;2.73;;;2.40;;
3443;SDS011;1736;52.068;6.968;2023-02-27T10:27:25;3.33;;;2.43;;
3443;SDS011;1736;52.068;6.968;2023-02-27T10:29:52;3.33;;;2.80;;
3443;SDS011;1736;52.068;6.968;2023-02-27T10:32:24;3.33;;;2.40;;
3443;SDS011;1736;52.068;6.968;2023-02-27T10:34:54;2.67;;;2.47;;
3443;SDS011;1736;52.068;6.968;2023-02-27T10:37:42;2.70;;;2.50;;
3443;SDS011;1736;52.068;6.968;2023-02-27T10:40:14;3.30;;;2.27;;
3443;SDS011;1736;52.068;6.968;2023-02-27T10:42:43;3.73;;;2.10;;
3443;SDS011;1736;52.068;6.968;2023-02-27T10:45:11;4.53;;;2.60;;
3443;SDS011;1736;52.068;6.968;2023-02-27T10:47:40;3.83;;;2.70;;
3443;SDS011;1736;52.068;6.968;2023-02-27T10:50:18;3.07;;;2.30;;
3443;SDS011;1736;52.068;6.968;2023-02-27T10:52:48;3.73;;;2.63;;
3443;SDS011;1736;52.068;6.968;2023-02-27T10:55:16;4.40;;;2.60;;
3443;SDS011;1736;52.068;6.968;2023-02-27T10:57:45;4.07;;;2.67;;
3443;SDS011;1736;52.068;6.968;2023-02-27T11:00:21;5.20;;;2.77;;
3443;SDS011;1736;52.068;6.968;2023-02-27T11:02:52;2.70;;;2.30;;
3443;SDS011;1736;52.068;6.968;2023-02-27T11:05:21;2.93;;;2.33;;
3443;SDS011;1736;52.068;6.968;2023-02-27T11:07:50;5.87;;;2.60;;
3443;SDS011;1736;52.068;6.968;2023-02-27T11:10:18;5.33;;;3.23;;
3443;SDS011;1736;52.068;6.968;2023-02-27T11:12:59;5.10;;;3.33;;
3443;SDS011;1736;52.068;6.968;2023-02-27T11:15:28;8.60;;;2.17;;
3443;SDS011;1736;52.068;6.968;2023-02-27T11:20:51;5.17;;;2.13;;
3443;SDS011;1736;52.068;6.968;2023-02-27T11:23:19;3.00;;;1.80;;
3443;SDS011;1736;52.068;6.968;2023-02-27T11:25:48;3.03;;;1.90;;
3443;SDS011;1736;52.068;6.968;2023-02-27T11:28:23;5.97;;;2.10;;
3443;SDS011;1736;52.068;6.968;2023-02-27T11:30:56;2.93;;;2.10;;
3443;SDS011;1736;52.068;6.968;2023-02-27T11:33:25;3.37;;;2.20;;
3443;SDS011;1736;52.068;6.968;2023-02-27T11:35:54;2.40;;;1.90;;
3443;SDS011;1736;52.068;6.968;2023-02-27T11:38:22;3.60;;;2.20;;
3443;SDS011;1736;52.068;6.968;2023-02-27T11:40:52;4.20;;;2.30;;
3443;SDS011;1736;52.068;6.968;2023-02-27T11:43:20;5.60;;;2.10;;
3443;SDS011;1736;52.068;6.968;2023-02-27T11:45:51;1.67;;;1.57;;
3443;SDS011;1736;52.068;6.968;2023-02-27T11:48:23;3.00;;;1.57;;
3443;SDS011;1736;52.068;6.968;2023-02-27T11:50:57;1.70;;;1.60;;
3443;SDS011;1736;52.068;6.968;2023-02-27T11:56:40;3.00;;;1.80;;
3443;SDS011;1736;52.068;6.968;2023-02-27T11:59:19;3.07;;;2.30;;
3443;SDS011;1736;52.068;6.968;2023-02-27T12:01:51;2.43;;;2.00;;
3443;SDS011;1736;52.068;6.968;2023-02-27T12:04:26;5.03;;;1.60;;
3443;SDS011;1736;52.068;6.968;2023-02-27T12:07:00;5.60;;;1.83;;
3443;SDS011;1736;52.068;6.968;2023-02-27T12:09:38;3.03;;;1.70;;
3443;SDS011;1736;52.068;6.968;2023-02-27T12:12:14;2.00;;;1.80;;
3443;SDS011;1736;52.068;6.968;2023-02-27T12:14:49;2.03;;;1.60;;
3443;SDS011;1736;52.068;6.968;2023-02-27T12:17:24;4.50;;;2.40;;
3443;SDS011;1736;52.068;6.968;2023-02-27T12:19:57;5.70;;;1.93;;
3443;SDS011;1736;52.068;6.968;2023-02-27T12:22:34;5.07;;;2.27;;
3443;SDS011;1736;52.068;6.968;2023-02-27T12:25:03;4.00;;;2.50;;
3443;SDS011;1736;52.068;6.968;2023-02-27T12:27:35;2.33;;;2.13;;
3443;SDS011;1736;52.068;6.968;2023-02-27T12:30:12;2.67;;;2.00;;
3443;SDS011;1736;52.068;6.968;2023-02-27T12:32:44;2.80;;;2.60;;
3443;SDS011;1736;52.068;6.968;2023-02-27T12:35:17;2.30;;;1.80;;
3443;SDS011;1736;52.068;6.968;2023-02-27T12:37:47;3.30;;;1.97;;
3443;SDS011;1736;52.068;6.968;2023-02-27T12:40:15;3.27;;;2.33;;
3443;SDS011;1736;52.068;6.968;2023-02-27T12:42:48;2.70;;;2.20;;
3443;SDS011;1736;52.068;6.968;2023-02-27T12:45:46;2.80;;;2.20;;
3443;SDS011;1736;52.068;6.968;2023-02-27T12:48:44;4.37;;;2.40;;
3443;SDS011;1736;52.068;6.968;2023-02-27T12:51:26;2.33;;;2.00;;
3443;SDS011;1736;52.068;6.968;2023-02-27T12:54:07;2.70;;;2.50;;
3443;SDS011;1736;52.068;6.968;2023-02-27T12:56:45;2.43;;;2.27;;
3443;SDS011;1736;52.068;6.968;2023-02-27T12:59:22;2.53;;;2.20;;
3443;SDS011;1736;52.068;6.968;2023-02-27T13:02:16;2.20;;;2.10;;
3443;SDS011;1736;52.068;6.968;2023-02-27T13:05:00;2.97;;;2.00;;
3443;SDS011;1736;52.068;6.968;2023-02-27T13:07:35;2.40;;;2.20;;
3443;SDS011;1736;52.068;6.968;2023-02-27T13:10:09;6.77;;;2.40;;
3443;SDS011;1736;52.068;6.968;2023-02-27T13:12:41;3.43;;;2.07;;
3443;SDS011;1736;52.068;6.968;2023-02-27T13:15:17;6.80;;;2.40;;
3443;SDS011;1736;52.068;6.968;2023-02-27T13:17:51;5.10;;;1.67;;
3443;SDS011;1736;52.068;6.968;2023-02-27T13:20:24;6.90;;;1.87;;
3443;SDS011;1736;52.068;6.968;2023-02-27T13:22:57;3.27;;;1.93;;
3443;SDS011;1736;52.068;6.968;2023-02-27T13:25:30;2.90;;;1.50;;
3443;SDS011;1736;52.068;6.968;2023-02-27T13:28:01;2.73;;;1.90;;
3443;SDS011;1736;52.068;6.968;2023-02-27T13:30:33;4.33;;;1.73;;
3443;SDS011;1736;52.068;6.968;2023-02-27T13:33:10;2.17;;;1.97;;
3443;SDS011;1736;52.068;6.968;2023-02-27T13:35:46;4.40;;;2.23;;
3443;SDS011;1736;52.068;6.968;2023-02-27T13:38:30;6.60;;;2.50;;
3443;SDS011;1736;52.068;6.968;2023-02-27T13:47:35;5.77;;;3.07;;
3443;SDS011;1736;52.068;6.968;2023-02-27T13:53:15;4.57;;;3.30;;
3443;SDS011;1736;52.068;6.968;2023-02-27T13:55:44;5.47;;;3.53;;
3443;SDS011;1736;52.068;6.968;2023-02-27T13:58:15;2.47;;;2.27;;
3443;SDS011;1736;52.068;6.968;2023-02-27T14:00:52;8.60;;;3.50;;
3443;SDS011;1736;52.068;6.968;2023-02-27T14:03:24;2.40;;;2.20;;
3443;SDS011;1736;52.068;6.968;2023-02-27T14:05:54;2.15;;;1.95;;
3443;SDS011;1736;52.068;6.968;2023-02-27T14:08:25;3.50;;;2.73;;
3443;SDS011;1736;52.068;6.968;2023-02-27T14:10:54;6.20;;;4.60;;
3443;SDS011;1736;52.068;6.968;2023-02-27T14:16:49;2.93;;;2.53;;
3443;SDS011;1736;52.068;6.968;2023-02-27T14:19:36;2.90;;;2.60;;
3443;SDS011;1736;52.068;6.968;2023-02-27T14:22:29;3.30;;;2.50;;
3443;SDS011;1736;52.068;6.968;2023-02-27T14:25:00;2.33;;;2.17;;
3443;SDS011;1736;52.068;6.968;2023-02-27T14:27:45;2.17;;;1.90;;
3443;SDS011;1736;52.068;6.968;2023-02-27T14:30:22;2.67;;;2.30;;
3443;SDS011;1736;52.068;6.968;2023-02-27T14:33:09;2.07;;;1.93;;
3443;SDS011;1736;52.068;6.968;2023-02-27T14:35:45;2.70;;;2.27;;
3443;SDS011;1736;52.068;6.968;2023-02-27T14:38:15;2.60;;;2.40;;
3443;SDS011;1736;52.068;6.968;2023-02-27T14:40:53;3.63;;;2.70;;
3443;SDS011;1736;52.068;6.968;2023-02-27T14:43:29;5.20;;;2.43;;
3443;SDS011;1736;52.068;6.968;2023-02-27T14:46:05;2.70;;;2.13;;
3443;SDS011;1736;52.068;6.968;2023-02-27T14:48:36;2.40;;;2.20;;
3443;SDS011;1736;52.068;6.968;2023-02-27T14:51:04;3.27;;;2.27;;
3443;SDS011;1736;52.068;6.968;2023-02-27T14:53:31;2.43;;;2.20;;
3443;SDS011;1736;52.068;6.968;2023-02-27T14:56:00;2.10;;;1.90;;
3443;SDS011;1736;52.068;6.968;2023-02-27T14:58:26;2.50;;;1.90;;
3443;SDS011;1736;52.068;6.968;2023-02-27T15:00:58;3.63;;;2.30;;
3443;SDS011;1736;52.068;6.968;2023-02-27T15:03:30;2.30;;;2.10;;
3443;SDS011;1736;52.068;6.968;2023-02-27T15:06:01;5.10;;;2.10;;
3443;SDS011;1736;52.068;6.968;2023-02-27T15:08:30;2.73;;;2.00;;
3443;SDS011;1736;52.068;6.968;2023-02-27T15:11:03;2.50;;;2.30;;
3443;SDS011;1736;52.068;6.968;2023-02-27T15:13:30;2.20;;;2.10;;
3443;SDS011;1736;52.068;6.968;2023-02-27T15:18:46;2.30;;;2.10;;
3443;SDS011;1736;52.068;6.968;2023-02-27T15:21:15;5.93;;;2.20;;
3443;SDS011;1736;52.068;6.968;2023-02-27T15:23:43;1.90;;;1.80;;
3443;SDS011;1736;52.068;6.968;2023-02-27T15:26:11;2.03;;;1.93;;
3443;SDS011;1736;52.068;6.968;2023-02-27T15:28:39;3.70;;;2.40;;
3443;SDS011;1736;52.068;6.968;2023-02-27T15:31:06;2.50;;;2.20;;
3443;SDS011;1736;52.068;6.968;2023-02-27T15:33:36;3.43;;;2.40;;
3443;SDS011;1736;52.068;6.968;2023-02-27T15:36:03;1.90;;;1.80;;
3443;SDS011;1736;52.068;6.968;2023-02-27T15:38:31;2.87;;;2.17;;
3443;SDS011;1736;52.068;6.968;2023-02-27T15:40:59;4.87;;;2.40;;
3443;SDS011;1736;52.068;6.968;2023-02-27T15:43:29;4.10;;;2.40;;
3443;SDS011;1736;52.068;6.968;2023-02-27T15:45:57;5.43;;;2.00;;
3443;SDS011;1736;52.068;6.968;2023-02-27T15:48:24;2.53;;;2.27;;
3443;SDS011;1736;52.068;6.968;2023-02-27T15:50:52;8.57;;;2.80;;
3443;SDS011;1736;52.068;6.968;2023-02-27T15:53:20;2.43;;;2.20;;
3443;SDS011;1736;52.068;6.968;2023-02-27T15:55:49;3.03;;;2.50;;
3443;SDS011;1736;52.068;6.968;2023-02-27T15:58:18;2.93;;;2.73;;
3443;SDS011;1736;52.068;6.968;2023-02-27T16:00:51;2.40;;;2.20;;
3443;SDS011;1736;52.068;6.968;2023-02-27T16:03:26;3.50;;;3.03;;
3443;SDS011;1736;52.068;6.968;2023-02-27T16:05:57;3.40;;;3.10;;
3443;SDS011;1736;52.068;6.968;2023-02-27T16:08:25;4.90;;;3.17;;
3443;SDS011;1736;52.068;6.968;2023-02-27T16:10:55;3.80;;;2.90;;
3443;SDS011;1736;52.068;6.968;2023-02-27T16:13:27;5.83;;;3.83;;